Las Vegas, Nevada (DRI) Weather observations

Data are for observation ending at time listed.
 Day   Time    Ave.   Ave.  Ave.  Vector   Max.   Stn.    Total    Solar   Ave.  
  of    of     Air    Rel.  Wind   Wind    Wind   Baro.  Precip.   Rad.    Soil  
Year   Day     Temp.  Hum.  Speed  Dir.    Gust   Pres.                    Temp. 
2026   (PST)    F      %     mph   deg.    mph     mb.     in.     W/m2     F   
------------------------------------------------------------------------------
 123    1:50   67.9    21    1.0   184      1.9   939.7    0.00       0    77.8
 123    2:00   67.4    22    0.4   176      1.0   939.9    0.00       0    77.6
 123    2:10   67.0    23    0.5   174      1.6   939.7    0.00       0    77.5
 123    2:20   66.9    23    0.0     0      0.0   939.8    0.00       0    77.3
 123    2:30   66.5    24    0.1   123      1.1   939.8    0.00       0    77.2
 123    2:40   66.0    25    0.0     0      0.0   939.9    0.00       0    77.0
 123    2:50   65.3    26    0.2   225      1.5   939.9    0.00       0    76.9
 123    3:00   65.6    25    0.0    54      0.9   939.9    0.00       0    76.7
 123    3:10   65.6    23    0.0     0      0.0   940.0    0.00       0    76.6
 123    3:20   65.2    24    0.0     0      0.0   939.8    0.00       0    76.4
 123    3:30   64.3    25    0.5   177      1.5   939.8    0.00       0    76.3
 123    3:40   64.0    24    0.4   172      1.5   939.8    0.00       0    76.2
 123    3:50   64.2    22    0.0   169      0.4   939.8    0.00       0    76.0
 123    4:00   64.5    22    0.0     9      0.7   939.7    0.00       0    75.9
 123    4:10   64.5    21    0.9   168      2.9   939.7    0.00       0    75.7
 123    4:20   64.6    20    1.4   155      3.6   939.9    0.00       0    75.6
 123    4:30   64.9    20    0.6    29      1.5   939.8    0.00       0    75.4
 123    4:40   64.5    22    0.0     0      0.0   939.8    0.00       1    75.3
 123    4:50   64.3    23    0.0     0      0.0   939.7    0.00       2    75.2
 123    5:00   64.5    24    0.0     0      0.0   939.9    0.00       6    75.0
 123    5:10   64.9    24    0.4   157      1.7   940.0    0.00      13    74.9
 123    5:20   65.2    24    0.1   151      0.9   940.1    0.00      17    74.8
 123    5:30   65.4    25    0.0     0      0.0   940.1    0.00      20    74.7
 123    5:40   66.1    24    0.1    37      1.0   940.2    0.00      20    74.6
 123    5:50   67.0    24    0.2    61      1.1   940.4    0.00      22    74.5
 123    6:00   68.2    22    0.2    90      1.5   940.6    0.00      24    74.4
 123    6:10   69.0    22    0.1   180      1.2   940.8    0.00      26    74.3
 123    6:20   68.5    24    0.4    62      1.5   940.8    0.00      32    74.2
 123    6:30   68.5    22    0.1    48      1.0   940.7    0.00      32    74.2
 123    6:40   68.5    21    0.4   171      1.2   940.6    0.00      32    74.1
 123    6:50   69.0    18    0.0     0      0.0   940.6    0.00      33    74.1
 123    7:00   69.7    18    0.0    32      0.9   940.6    0.00      34    74.1
 123    7:10   70.8    15    0.2    56      2.0   940.7    0.00      36    74.0
 123    7:20   72.0    13    1.4    35      5.1   940.6    0.00      38    74.1
 123    7:30   72.8    14    0.5    49      2.9   940.6    0.00      45    74.0
 123    7:40   73.3    13    1.2    60      5.2   940.6    0.00      47    74.0
 123    7:50   74.1    13    1.1    52      4.2   940.6    0.00     108    74.0
 123    8:00   74.5    13    0.6    46      2.5   940.6    0.00     105    74.0
 123    8:10   75.0    13    0.8    11      3.3   940.5    0.00     187    74.0
 123    8:20   75.5    13    0.6    34      2.0   940.4    0.00     237    74.0
 123    8:30   76.3    13    0.1     1      2.0   940.4    0.00     202    74.0
 123    8:40   76.7    12    1.0    70      3.4   940.3    0.00     263    74.1
 123    8:50   77.2    12    0.9    68      3.8   940.3    0.00     446    74.3
 123    9:00   77.6    12    1.3    22      3.4   940.2    0.00     621    74.4
 123    9:10   78.3    11    2.4     2      5.3   940.1    0.00     717    74.5
 123    9:20   78.9    11    1.1    25      3.7   940.0    0.00     746    74.7
 123    9:30   79.8    12    1.6    24      5.4   939.9    0.00     769    74.8
 123    9:40   80.4    12    1.7    59      3.5   939.9    0.00     790    75.1
 123    9:50   81.6    12    0.8    65      3.7   939.7    0.00     812    75.5
 123   10:00   81.5    12    2.5    45      5.3   939.5    0.00     831    75.9
 123   10:10   82.2    11    2.6    31      5.0   939.3    0.00     847    76.4
 123   10:20   82.7    12    2.4    45      5.0   939.2    0.00     859    77.1
 123   10:30   83.4    11    2.4    46      4.7   939.0    0.00     893    77.9
 123   10:40   84.6    11    1.1    28      5.1   938.8    0.00     642    78.7
 123   10:50   85.0    12    1.2   170      3.4   938.6    0.00     651    79.6
 123   11:00   86.1    11    1.5    33      4.5   938.4    0.00     947    80.5
 123   11:10   86.5    12    1.9    29      4.6   938.2    0.00     952    81.2
 123   11:20   87.2    12    1.8   184      5.2   937.8    0.00     959    82.0
 123   11:30   87.5    12    2.1    69      5.8   937.6    0.00     966    82.8
 123   11:40   89.3    11    1.3   284      4.3   937.4    0.00     976    83.7
 123   11:50   89.0    11    1.7    27      4.3   937.1    0.00     653    84.5
 123   12:00   87.6    12    2.6     5      7.3   936.9    0.00     369    85.4
 123   12:10   87.5    11    2.2   271      6.4   936.6    0.00     711    86.1
 123   12:20   88.8    12    2.0   180      6.7   936.4    0.00     252    86.6
 123   12:30   88.5    13    3.2   177      9.5   936.2    0.00     241    86.9
 123   12:40   87.8    13    6.6   173     17.5   936.0    0.00     339    86.9
 123   12:50   88.1    13    7.0   170     12.4   935.7    0.00     316    86.8
 123   13:00   88.3    13    5.1   172     12.3   935.6    0.00     496    86.6
 123   13:10   89.2    13    6.3   176     16.9   935.4    0.00     524    86.4
 123   13:20   89.3    13    5.2   179     13.7   935.3    0.00     616    86.2
 123   13:30   89.0    13    5.9   175     12.4   935.1    0.00     316    86.1
 123   13:40   88.6    13    6.8   176     14.1   935.1    0.00     313    86.1
 123   13:50   88.2    14    5.5   177     12.7   934.9    0.00     262    86.1
 123   14:00   87.9    14    4.8   175     14.1   934.8    0.00     248    86.0
 123   14:10   87.8    14    8.2   172     16.2   934.6    0.00     296    85.8
 123   14:20   88.3    14    5.3   172     15.7   934.5    0.00     462    85.7
 123   14:30   88.1    14    4.6   165     14.0   934.3    0.00     179    85.7
 123   14:40   88.9    14    4.6   179     10.4   934.0    0.00     695    85.6
 123   14:50   90.7    14    3.7   179     12.3   933.7    0.00     584    85.6
 123   15:00   90.8    13    4.7   181     12.2   933.6    0.00     759    85.6
 123   15:10   91.1    12    8.4   172     15.4   933.4    0.00     688    85.7
 123   15:20   91.5    12    4.6   174     12.4   933.3    0.00     630    86.0
 123   15:30   90.8    12    7.0   182     12.5   933.2    0.00     589    86.2
 123   15:40   91.1    12    8.2   188     17.5   933.2    0.00     594    86.3
 123   15:50   90.4    12    9.3   189     17.5   933.1    0.00     550    86.3
 123   16:00   89.9    12    9.0   191     17.0   933.1    0.00     510    86.3
 123   16:10   90.4    12    8.6   181     15.9   933.1    0.00     463    86.4
 123   16:20   90.0    12    8.8   194     16.3   933.0    0.00     412    86.4
 123   16:30   89.4    11    8.3   188     17.4   933.0    0.00     346    86.4
 123   16:40   89.2    12    7.7   194     16.0   933.1    0.00     211    86.3
 123   16:50   87.6    12    7.6   184     14.2   933.1    0.00      48    86.2
 123   17:00   87.2    12    7.2   187     15.4   933.2    0.00      42    86.2
 123   17:10   86.8    13    8.9   187     17.2   933.2    0.00      45    86.0
 123   17:20   86.4    13    7.1   192     15.1   933.2    0.00      47    85.8
 123   17:30   86.4    13    7.6   187     13.2   933.1    0.00      48    85.5
 123   17:40   86.4    13    7.0   184     16.2   933.2    0.00      57    85.4
 123   17:50   86.3    13    8.2   193     15.7   933.1    0.00      65    85.1
 123   18:00   85.9    13    7.4   190     14.8   933.1    0.00      28    84.8
 123   18:10   85.7    13    7.0   194     13.4   933.1    0.00      20    84.6
 123   18:20   85.6    13    6.5   179     12.3   933.2    0.00      12    84.5
 123   18:30   85.2    13    6.4   175     11.2   933.1    0.00       6    84.3
 123   18:40   85.0    13    6.7   180     12.3   933.2    0.00       2    84.1
 123   18:50   84.6    13    6.2   182     13.4   933.4    0.00       1    84.0
 123   19:00   84.3    13    7.3   179     13.6   933.4    0.00       0    83.8
 123   19:10   83.9    13    6.8   185     11.8   933.5    0.00       0    83.6
 123   19:20   83.6    14    5.0   208      9.5   933.8    0.00       0    83.5
 123   19:30   83.0    15    3.4   230      8.8   933.9    0.00       0    83.4
 123   19:40   82.3    16    4.1   197      9.1   934.3    0.00       0    83.2
 123   19:50   81.8    16    4.3   187      8.6   934.4    0.00       0    83.1
 123   20:00   81.5    16    5.1   182      9.8   934.5    0.00       0    83.0
 123   20:10   81.3    16    5.3   182      9.3   934.6    0.00       0    82.8
 123   20:20   81.1    16    4.6   200      9.5   934.8    0.00       0    82.5
 123   20:30   80.6    16    3.9   198      8.7   934.9    0.00       0    82.4
 123   20:40   80.2    16    4.0   196      7.3   935.1    0.00       0    82.3
 123   20:50   79.8    15    4.1   186      8.9   935.1    0.00       0    82.1
 123   21:00   79.4    14    4.2   187     10.1   935.0    0.00       0    82.0
 123   21:10   79.2    14    5.0   191      9.6   935.1    0.00       0    81.8
 123   21:20   78.9    14    4.0   196      8.8   935.2    0.00       0    81.7
 123   21:30   78.6    14    3.7   188      7.5   935.2    0.00       0    81.6
 123   21:40   78.5    15    4.5   187      9.1   935.1    0.00       0    81.4
 123   21:50   78.4    16    4.9   193     10.7   934.9    0.00       0    81.2
 123   22:00   78.2    16    4.6   184      7.8   935.0    0.00       0    81.1
 123   22:10   77.8    15    4.0   184      8.0   935.0    0.00       0    81.0
 123   22:20   77.5    15    4.1   182      7.1   935.0    0.00       0    80.9
 123   22:30   77.0    15    4.0   175      9.1   935.4    0.00       0    80.8
 123   22:40   76.9    15    3.3   178      7.5   935.3    0.00       0    80.7
 123   22:50   76.8    16    2.9   187      6.6   935.2    0.00       0    80.5
 123   23:00   76.6    17    2.5   177      4.2   935.2    0.00       0    80.4
 123   23:10   76.4    18    5.5   172     11.4   935.6    0.00       0    80.3
 123   23:20   76.4    18    3.4   174      6.6   935.8    0.00       0    80.2
 123   23:30   75.8    19    4.3   175      8.3   935.9    0.00       0    80.1
 123   23:40   75.4    19    4.5   178      8.3   936.0    0.00       0    80.0
 123   23:50   75.1    20    5.4   176     15.1   935.9    0.00       0    79.9
 124    0:00   74.6    22    6.4   189     10.8   936.0    0.00       0    79.7
 124    0:10   74.2    22    6.7   192     10.9   936.1    0.00       0    79.5
 124    0:20   73.8    23    6.2   186     10.2   936.3    0.00       0    79.4
 124    0:30   73.4    24    7.0   200     13.8   936.1    0.00       0    79.3
 124    0:40   73.3    25    6.0   187     10.6   936.0    0.00       0    79.2
 124    0:50   73.1    25    5.9   188     11.4   936.2    0.00       0    79.0
 124    1:00   73.0    25    6.4   179     11.9   936.5    0.00       0    78.9
 124    1:10   72.6    26    5.9   177     11.5   936.5    0.00       0    78.8
 124    1:20   71.7    28    7.3   174     14.4   936.4    0.00       0    78.7
 124    1:30   70.5    31    7.4   176     13.1   936.5    0.00       0    78.5
 124    1:40   69.8    32    7.4   174     13.7   936.6    0.00       0    78.4

Return to Las Vegas, Nevada graphs page.


Western Regional Climate Center,wrcc@dri.edu